Time;durP1;ratioP1;P1;durP2;ratioP2;P2;SDS_P1;SDS_P2;PMS_P1;PMS_P2;Temp;Humidity;BMP_temperature;BMP_pressure;BME280_temperature;BME280_humidity;BME280_pressure;Samples;Min_cycle;Max_cycle;Signal;HPM_P1;HPM_P2
2022/10/17 00:00:54;;;;;;;515.57;307.57;;;13.10;99.90;;;;;;5131678;27;20298;-51
2022/10/17 00:03:22;;;;;;;466.37;244.57;;;13.10;99.90;;;;;;5131493;27;20203;-51
2022/10/17 00:05:50;;;;;;;446.47;245.17;;;13.10;99.90;;;;;;5131490;27;21059;-50
2022/10/17 00:08:18;;;;;;;527.60;228.40;;;13.00;99.90;;;;;;5131192;27;20765;-51
2022/10/17 00:10:56;;;;;;;783.93;381.40;;;13.00;99.90;;;;;;5129235;27;20649;-50
2022/10/17 00:13:24;;;;;;;511.93;220.53;;;13.00;99.90;;;;;;5131274;27;20205;-51
2022/10/17 00:15:54;;;;;;;645.30;313.90;;;13.00;99.90;;;;;;5130479;27;20229;-50
2022/10/17 00:18:22;;;;;;;311.77;127.20;;;13.00;99.90;;;;;;5131191;27;20321;-51
2022/10/17 00:20:50;;;;;;;549.93;252.27;;;13.00;99.90;;;;;;5131194;27;20286;-50
2022/10/17 00:23:18;;;;;;;877.87;429.87;;;13.00;99.90;;;;;;5130747;27;20581;-51
2022/10/17 00:25:46;;;;;;;324.87;141.10;;;12.90;99.90;;;;;;5129998;27;20972;-51
2022/10/17 00:28:16;;;;;;;657.70;320.30;;;12.90;99.90;;;;;;5129823;27;20321;-51
2022/10/17 00:30:44;;;;;;;725.93;382.23;;;12.90;99.90;;;;;;5129661;27;20298;-52
2022/10/17 00:33:13;;;;;;;720.20;372.27;;;12.90;99.90;;;;;;5130207;27;20298;-51
2022/10/17 00:35:41;;;;;;;273.77;118.87;;;12.90;99.90;;;;;;5130102;27;20854;-50
2022/10/17 00:38:09;;;;;;;695.13;314.90;;;12.90;99.90;;;;;;5130819;27;20207;-51
2022/10/17 00:40:37;;;;;;;388.47;176.63;;;12.90;99.90;;;;;;5130682;27;20322;-51
2022/10/17 00:43:06;;;;;;;447.30;225.70;;;12.80;99.90;;;;;;5130519;27;20663;-51
2022/10/17 00:45:34;;;;;;;407.77;186.30;;;12.80;99.90;;;;;;5130418;27;20314;-51
2022/10/17 00:48:07;;;;;;;595.50;306.33;;;12.80;99.90;;;;;;5130375;27;20201;-52
2022/10/17 00:50:39;;;;;;;223.00;87.23;;;12.80;99.90;;;;;;5130728;27;20655;-51
2022/10/17 00:53:09;;;;;;;449.43;204.60;;;12.80;99.90;;;;;;5130032;27;20209;-51
2022/10/17 00:55:44;;;;;;;406.83;163.87;;;12.80;99.90;;;;;;5130807;27;20250;-51
2022/10/17 00:58:12;;;;;;;481.57;259.47;;;12.70;99.90;;;;;;5130115;27;20290;-51
2022/10/17 01:00:41;;;;;;;565.13;231.20;;;12.70;99.90;;;;;;5130927;27;20223;-51
2022/10/17 01:03:10;;;;;;;433.27;179.03;;;12.60;99.90;;;;;;5129702;27;20298;-51
2022/10/17 01:05:41;;;;;;;806.30;404.20;;;12.70;99.90;;;;;;5130409;27;20309;-51
2022/10/17 01:08:10;;;;;;;316.70;138.23;;;12.70;99.90;;;;;;5129793;27;20309;-51
2022/10/17 01:10:49;;;;;;;504.23;234.73;;;12.60;99.90;;;;;;5128901;27;20286;-51
2022/10/17 01:13:24;;;;;;;793.67;392.63;;;12.70;99.90;;;;;;5129609;27;20285;-51
2022/10/17 01:15:59;;;;;;;719.03;375.83;;;12.60;99.90;;;;;;5130046;27;20233;-52
2022/10/17 01:18:37;;;;;;;647.53;339.53;;;12.60;99.90;;;;;;5130132;27;20281;-51
2022/10/17 01:21:38;;;;;;;498.70;215.10;;;12.60;99.90;;;;;;5129913;27;20202;-50
2022/10/17 01:24:43;;;;;;;877.67;524.83;;;12.60;99.90;;;;;;5128729;27;20222;-51
2022/10/17 01:27:44;;;;;;;793.93;466.77;;;12.60;99.90;;;;;;5129545;27;20330;-51
2022/10/17 01:30:51;;;;;;;468.03;236.23;;;12.50;99.90;;;;;;5130072;27;21065;-51
2022/10/17 01:33:32;;;;;;;245.33;109.77;;;12.50;99.90;;;;;;5130140;28;20225;-51
2022/10/17 01:36:06;;;;;;;581.17;291.80;;;12.50;99.90;;;;;;5129889;27;20240;-51
2022/10/17 01:38:39;;;;;;;448.40;216.17;;;12.40;99.90;;;;;;5130085;27;20256;-51
2022/10/17 01:41:13;;;;;;;1006.30;624.83;;;12.40;99.90;;;;;;5130224;27;20299;-51
2022/10/17 01:43:48;;;;;;;685.37;318.40;;;12.40;99.90;;;;;;5129793;27;20212;-51
2022/10/17 01:46:22;;;;;;;386.00;174.87;;;12.40;99.90;;;;;;5126733;27;20228;-51
2022/10/17 01:48:53;;;;;;;485.47;242.50;;;12.40;99.90;;;;;;5129254;27;20203;-51
2022/10/17 01:51:26;;;;;;;660.73;306.73;;;12.40;99.90;;;;;;5129967;27;20285;-51
2022/10/17 01:54:01;;;;;;;759.43;378.03;;;12.40;99.90;;;;;;5129465;27;20207;-51
2022/10/17 01:56:31;;;;;;;302.57;137.40;;;12.40;99.90;;;;;;5129654;27;20305;-51
2022/10/17 01:59:04;;;;;;;385.10;241.63;;;12.30;99.90;;;;;;5129801;27;20293;-51
2022/10/17 02:01:34;;;;;;;677.43;367.57;;;12.30;99.90;;;;;;5129369;27;20693;-51
2022/10/17 02:04:05;;;;;;;493.70;267.93;;;12.30;99.90;;;;;;5129707;27;20206;-51
2022/10/17 02:06:35;;;;;;;452.73;216.13;;;12.30;99.90;;;;;;5133190;27;20230;-51
2022/10/17 02:09:17;;;;;;;672.97;295.00;;;12.30;99.90;;;;;;5133145;27;20298;-52
2022/10/17 02:11:57;;;;;;;648.27;344.77;;;12.30;99.90;;;;;;5133238;27;20199;-51
2022/10/17 02:14:37;;;;;;;712.37;354.43;;;12.30;99.90;;;;;;5132952;27;20289;-50
2022/10/17 02:17:15;;;;;;;449.07;216.07;;;12.30;99.90;;;;;;5133373;27;20675;-51
2022/10/17 02:19:55;;;;;;;247.70;113.30;;;12.20;99.90;;;;;;5133649;27;20309;-51
2022/10/17 02:22:32;;;;;;;298.03;162.50;;;12.30;99.90;;;;;;5133473;27;20282;-52
2022/10/17 02:25:09;;;;;;;225.37;90.53;;;12.30;99.90;;;;;;5132349;27;20317;-52
2022/10/17 02:27:45;;;;;;;298.43;122.30;;;12.20;99.90;;;;;;5119392;27;20207;-51
2022/10/17 02:30:20;;;;;;;724.43;376.93;;;12.30;99.90;;;;;;5133704;27;20199;-51
2022/10/17 02:32:53;;;;;;;508.03;226.30;;;12.20;99.90;;;;;;5119423;27;20249;-51
2022/10/17 02:35:25;;;;;;;183.57;104.80;;;12.20;99.90;;;;;;5133414;27;20258;-51
2022/10/17 02:37:55;;;;;;;69.03;35.50;;;12.20;99.90;;;;;;5119294;27;20244;-51
2022/10/17 02:40:25;;;;;;;554.10;275.87;;;12.20;99.90;;;;;;5132788;27;20230;-51
2022/10/17 02:42:55;;;;;;;370.90;146.33;;;12.20;99.90;;;;;;5132001;27;20666;-51
2022/10/17 02:45:26;;;;;;;135.77;60.10;;;12.20;99.90;;;;;;5132862;27;20223;-51
2022/10/17 02:47:59;;;;;;;463.47;249.43;;;12.20;99.90;;;;;;5131891;27;20294;-51
2022/10/17 02:50:38;;;;;;;135.13;44.97;;;12.20;99.90;;;;;;5132971;27;20281;-51
2022/10/17 02:53:12;;;;;;;163.07;67.60;;;12.20;99.90;;;;;;5118930;27;20602;-51
2022/10/17 02:55:47;;;;;;;486.03;238.67;;;12.20;99.90;;;;;;5132669;27;20222;-51
2022/10/17 02:58:20;;;;;;;330.20;131.83;;;12.10;99.90;;;;;;5133183;27;20301;-52
2022/10/17 03:00:49;;;;;;;554.33;291.97;;;12.10;99.90;;;;;;5132306;27;20224;-51
2022/10/17 03:03:22;;;;;;;172.23;83.70;;;12.10;99.90;;;;;;5132519;27;20207;-52
2022/10/17 03:05:53;;;;;;;208.87;94.37;;;12.10;99.90;;;;;;5132756;27;20827;-51
2022/10/17 03:08:21;;;;;;;568.83;279.80;;;12.00;99.90;;;;;;5132870;27;20568;-51
2022/10/17 03:10:49;;;;;;;483.43;243.87;;;12.00;99.90;;;;;;5132706;27;20207;-51
2022/10/17 03:13:18;;;;;;;351.53;153.87;;;12.00;99.90;;;;;;5132463;27;20302;-51
2022/10/17 03:15:46;;;;;;;561.50;249.77;;;12.00;99.90;;;;;;5132542;27;20233;-51
2022/10/17 03:18:14;;;;;;;484.00;257.97;;;12.00;99.90;;;;;;5132142;27;20679;-51
2022/10/17 03:20:42;;;;;;;403.70;179.90;;;12.00;99.90;;;;;;5132348;27;20221;-51
2022/10/17 03:23:12;;;;;;;729.43;426.63;;;11.90;99.90;;;;;;5132267;27;20209;-51
2022/10/17 03:25:40;;;;;;;503.80;259.43;;;11.90;99.90;;;;;;5131907;27;20707;-51
2022/10/17 03:28:09;;;;;;;354.50;145.63;;;11.90;99.90;;;;;;5131789;27;20746;-51
2022/10/17 03:30:38;;;;;;;154.33;51.40;;;11.90;99.90;;;;;;5130580;27;20658;-51
2022/10/17 03:33:06;;;;;;;349.17;142.53;;;12.00;99.90;;;;;;5124615;27;20602;-51
2022/10/17 03:35:34;;;;;;;178.67;82.40;;;12.00;99.90;;;;;;5132407;27;20317;-51
2022/10/17 03:38:02;;;;;;;389.70;243.77;;;11.90;99.90;;;;;;5132242;27;20290;-51
2022/10/17 03:40:31;;;;;;;444.63;228.70;;;11.90;99.90;;;;;;5130575;27;20236;-51
2022/10/17 03:42:59;;;;;;;144.57;72.30;;;11.90;99.90;;;;;;5131509;27;20299;-51
2022/10/17 03:45:28;;;;;;;168.53;86.07;;;11.90;99.90;;;;;;5132191;27;20610;-51
2022/10/17 03:47:56;;;;;;;383.07;165.80;;;11.90;99.90;;;;;;5131414;27;20293;-51
2022/10/17 03:50:24;;;;;;;438.30;190.97;;;11.90;99.90;;;;;;5133948;27;20301;-51
2022/10/17 03:52:52;;;;;;;787.20;472.47;;;11.90;99.90;;;;;;5132588;27;20290;-51
2022/10/17 03:55:20;;;;;;;696.03;384.87;;;11.90;99.90;;;;;;5142996;27;20329;-51
2022/10/17 03:57:49;;;;;;;455.33;220.90;;;11.90;99.90;;;;;;5144421;27;20203;-51
2022/10/17 04:00:17;;;;;;;585.70;304.17;;;11.90;99.90;;;;;;5146817;27;20293;-51
2022/10/17 04:02:45;;;;;;;563.73;258.00;;;11.90;99.90;;;;;;5138199;27;20325;-51
2022/10/17 04:05:13;;;;;;;607.97;293.57;;;11.90;99.90;;;;;;5145233;27;20607;-51
2022/10/17 04:07:41;;;;;;;410.17;200.33;;;11.90;99.90;;;;;;5142901;27;20277;-51
2022/10/17 04:10:10;;;;;;;480.60;211.97;;;11.90;99.90;;;;;;5148562;27;20289;-51
2022/10/17 04:12:38;;;;;;;372.27;159.93;;;11.90;99.90;;;;;;5134251;27;20203;-51
2022/10/17 04:15:09;;;;;;;287.70;124.70;;;11.90;99.90;;;;;;5119790;27;20229;-51
2022/10/17 04:17:37;;;;;;;395.90;190.00;;;11.80;99.90;;;;;;5130270;27;20672;-51
2022/10/17 04:20:06;;;;;;;400.00;209.70;;;11.80;99.90;;;;;;5130223;27;20211;-51
2022/10/17 04:22:34;;;;;;;669.93;417.30;;;11.80;99.90;;;;;;5132980;27;20225;-51
2022/10/17 04:25:02;;;;;;;197.33;82.17;;;11.80;99.90;;;;;;5134180;27;20297;-51
2022/10/17 04:27:30;;;;;;;52.77;22.93;;;11.70;99.90;;;;;;5130624;27;20298;-51
2022/10/17 04:29:58;;;;;;;333.63;175.57;;;11.70;99.90;;;;;;5141985;27;20681;-51
2022/10/17 04:32:28;;;;;;;388.83;181.10;;;11.70;99.90;;;;;;5136212;27;20202;-51
2022/10/17 04:34:56;;;;;;;349.60;156.90;;;11.70;99.90;;;;;;5138034;27;20371;-50
2022/10/17 04:37:24;;;;;;;272.53;100.03;;;11.80;99.90;;;;;;5135395;27;20293;-51
2022/10/17 04:39:52;;;;;;;441.77;232.87;;;11.80;99.90;;;;;;5133343;27;20750;-50
2022/10/17 04:42:20;;;;;;;489.33;223.17;;;11.80;99.90;;;;;;5134651;27;20345;-51
2022/10/17 04:44:48;;;;;;;455.47;210.33;;;11.80;99.90;;;;;;5128497;27;20308;-51
2022/10/17 04:47:16;;;;;;;283.70;142.33;;;11.80;99.90;;;;;;5123537;27;20203;-51
2022/10/17 04:49:46;;;;;;;418.20;228.03;;;11.80;99.90;;;;;;5129898;27;20198;-51
2022/10/17 04:52:14;;;;;;;857.67;516.87;;;11.80;99.90;;;;;;5134507;27;20226;-51
2022/10/17 04:54:43;;;;;;;309.53;146.80;;;11.80;99.90;;;;;;5134794;27;20629;-54
2022/10/17 04:57:11;;;;;;;585.47;322.60;;;11.80;99.90;;;;;;5134846;27;20282;-50
2022/10/17 04:59:39;;;;;;;565.43;258.10;;;11.90;99.90;;;;;;5143066;27;20567;-51
2022/10/17 05:02:07;;;;;;;717.83;342.80;;;11.80;99.90;;;;;;5146053;27;20678;-52
2022/10/17 05:04:35;;;;;;;481.13;199.80;;;11.90;99.90;;;;;;5140320;27;20354;-51
2022/10/17 05:07:05;;;;;;;465.30;217.87;;;11.80;99.90;;;;;;5132796;27;20211;-50
2022/10/17 05:09:33;;;;;;;251.63;99.03;;;11.80;99.90;;;;;;5139028;27;20247;-51
2022/10/17 05:12:01;;;;;;;654.07;311.30;;;11.80;99.90;;;;;;5132185;27;20297;-51
2022/10/17 05:14:33;;;;;;;592.63;327.60;;;11.80;99.90;;;;;;5136024;27;20261;-50
2022/10/17 05:17:01;;;;;;;589.63;298.43;;;11.80;99.90;;;;;;5132255;27;20305;-50
2022/10/17 05:19:29;;;;;;;343.80;149.17;;;11.80;99.90;;;;;;5129557;27;20206;-50
2022/10/17 05:21:57;;;;;;;431.13;182.60;;;11.80;99.90;;;;;;5115608;27;20314;-50
2022/10/17 05:24:27;;;;;;;586.47;283.83;;;11.80;99.90;;;;;;5128147;27;20201;-51
2022/10/17 05:26:55;;;;;;;343.80;155.00;;;11.80;99.90;;;;;;5135475;27;20589;-50
2022/10/17 05:29:23;;;;;;;910.37;524.30;;;11.80;99.90;;;;;;5129987;27;20285;-51
2022/10/17 05:31:51;;;;;;;231.97;90.77;;;11.80;99.90;;;;;;5126410;27;20276;-51
2022/10/17 05:34:19;;;;;;;804.13;364.73;;;11.80;99.90;;;;;;5130037;28;20266;-50
2022/10/17 05:36:47;;;;;;;189.03;82.20;;;11.80;99.90;;;;;;5131374;27;20317;-49
2022/10/17 05:39:18;;;;;;;656.80;291.63;;;11.80;99.90;;;;;;5131564;27;20622;-51
2022/10/17 05:41:47;;;;;;;826.70;342.83;;;11.80;99.90;;;;;;5129502;27;20327;-52
2022/10/17 05:44:16;;;;;;;444.40;202.07;;;11.80;99.90;;;;;;5124756;27;20290;-50
2022/10/17 05:46:44;;;;;;;237.60;87.07;;;11.70;99.90;;;;;;5144359;27;20264;-49
2022/10/17 05:49:12;;;;;;;250.80;158.73;;;11.70;99.90;;;;;;5132660;27;20301;-50
2022/10/17 05:51:58;;;;;;;791.47;475.90;;;11.70;99.90;;;;;;5127889;27;20195;-51
2022/10/17 05:54:27;;;;;;;455.20;220.30;;;11.70;99.90;;;;;;5128229;27;20198;-50
2022/10/17 05:56:56;;;;;;;621.20;294.53;;;11.70;99.90;;;;;;5135462;27;20215;-50
2022/10/17 05:59:25;;;;;;;574.70;287.23;;;11.70;99.90;;;;;;5134076;27;20294;-50
2022/10/17 06:01:54;;;;;;;163.20;68.23;;;11.80;99.90;;;;;;5131157;27;20719;-52
2022/10/17 06:04:22;;;;;;;220.13;78.90;;;11.80;99.90;;;;;;5131198;27;20203;-50
2022/10/17 06:06:50;;;;;;;581.13;218.23;;;11.90;99.90;;;;;;5134686;27;20790;-49
2022/10/17 06:09:18;;;;;;;662.33;301.20;;;11.90;99.90;;;;;;5134581;27;20349;-51
2022/10/17 06:11:46;;;;;;;366.83;133.07;;;11.80;99.90;;;;;;5133472;27;20277;-51
2022/10/17 06:14:15;;;;;;;394.00;157.53;;;11.90;99.90;;;;;;5139050;27;20298;-51
2022/10/17 06:16:43;;;;;;;167.70;68.40;;;11.90;99.90;;;;;;5131377;27;20264;-51
2022/10/17 06:19:11;;;;;;;187.97;78.70;;;11.90;99.90;;;;;;5140532;27;20294;-51
2022/10/17 06:21:39;;;;;;;613.80;237.97;;;12.00;99.90;;;;;;5131753;27;20246;-51
2022/10/17 06:24:07;;;;;;;426.83;132.90;;;12.00;99.90;;;;;;5133065;27;20210;-51
2022/10/17 06:26:35;;;;;;;646.37;312.97;;;12.10;99.90;;;;;;5138827;27;20669;-50
2022/10/17 06:29:04;;;;;;;481.70;153.70;;;12.10;99.90;;;;;;5136791;27;20314;-51
2022/10/17 06:31:33;;;;;;;196.73;71.30;;;12.10;99.90;;;;;;5134876;27;20203;-50
2022/10/17 06:34:01;;;;;;;358.60;155.83;;;12.20;99.90;;;;;;5142289;27;20294;-50
2022/10/17 06:36:29;;;;;;;639.87;267.10;;;12.20;99.90;;;;;;5133102;27;20237;-51
2022/10/17 06:38:57;;;;;;;685.30;273.53;;;12.30;99.90;;;;;;5135880;27;20776;-50
2022/10/17 06:41:25;;;;;;;735.37;287.40;;;12.30;99.90;;;;;;5134694;27;20289;-50
2022/10/17 06:43:53;;;;;;;472.60;166.67;;;12.40;99.90;;;;;;5133393;27;20612;-52
2022/10/17 06:46:23;;;;;;;767.13;305.20;;;12.50;99.90;;;;;;5145618;27;20306;-48
2022/10/17 06:48:52;;;;;;;222.53;69.93;;;12.50;99.90;;;;;;5139773;27;20631;-51
2022/10/17 06:51:21;;;;;;;1305.60;573.87;;;12.60;99.90;;;;;;5131667;27;20221;-51
2022/10/17 06:53:49;;;;;;;665.93;215.47;;;12.70;99.90;;;;;;5143193;27;20202;-50
2022/10/17 06:56:18;;;;;;;1055.40;475.90;;;12.90;99.90;;;;;;5133470;27;20305;-51
2022/10/17 06:58:48;;;;;;;1597.93;680.30;;;13.00;99.90;;;;;;5139141;27;20291;-50
2022/10/17 07:01:16;;;;;;;1572.20;647.87;;;13.30;99.90;;;;;;5132654;27;20295;-50
2022/10/17 07:03:47;;;;;;;1363.57;677.90;;;13.60;99.90;;;;;;5141045;27;20226;-50
2022/10/17 07:06:16;;;;;;;1574.40;605.23;;;13.80;99.90;;;;;;5131863;27;20227;-49
2022/10/17 07:08:45;;;;;;;1426.67;713.77;;;13.90;99.90;;;;;;5144086;27;20305;-51
2022/10/17 07:11:15;;;;;;;1174.30;404.83;;;14.20;99.90;;;;;;5132437;27;20202;-50
2022/10/17 07:13:44;;;;;;;1152.45;460.70;;;14.30;99.90;;;;;;5131183;27;20281;-51
2022/10/17 07:16:13;;;;;;;1216.50;638.53;;;14.40;99.90;;;;;;5127712;27;20222;-51
2022/10/17 07:18:42;;;;;;;1239.13;674.10;;;14.40;99.90;;;;;;5132138;27;20288;-50
2022/10/17 07:21:10;;;;;;;1457.00;669.30;;;14.60;99.90;;;;;;5123529;27;20290;-50
2022/10/17 07:23:40;;;;;;;1304.55;670.35;;;14.70;99.90;;;;;;5133512;27;20313;-50
2022/10/17 07:26:10;;;;;;;1426.68;773.40;;;15.00;99.90;;;;;;5132273;27;20250;-51
2022/10/17 07:28:40;;;;;;;1439.75;740.22;;;15.20;99.90;;;;;;5132984;27;20225;-51
2022/10/17 07:31:10;;;;;;;1411.00;738.83;;;15.40;99.90;;;;;;5124366;27;20707;-50
2022/10/17 07:33:38;;;;;;;1520.28;751.70;;;15.50;99.90;;;;;;5126738;27;20630;-51
2022/10/17 07:36:07;;;;;;;1381.13;755.15;;;15.60;99.90;;;;;;5146091;27;20239;-50
2022/10/17 07:38:36;;;;;;;1350.95;672.95;;;15.60;99.90;;;;;;5132771;27;20647;-51
2022/10/17 07:41:09;;;;;;;1285.97;549.00;;;15.50;99.90;;;;;;5132421;27;20294;-50
2022/10/17 07:43:37;;;;;;;1079.32;738.60;;;15.40;99.90;;;;;;5131618;27;20253;-51
2022/10/17 07:46:07;;;;;;;1174.22;520.88;;;15.40;99.90;;;;;;5143639;27;20317;-48
2022/10/17 07:48:35;;;;;;;1083.43;533.28;;;15.40;99.90;;;;;;5131628;27;20199;-50
2022/10/17 07:51:04;;;;;;;1404.15;624.90;;;15.30;99.90;;;;;;5123825;27;20289;-50
2022/10/17 07:53:35;;;;;;;1397.63;581.40;;;15.30;99.90;;;;;;5129675;27;20223;-49
2022/10/17 07:56:07;;;;;;;1463.68;689.42;;;15.40;99.90;;;;;;5138440;27;20227;-51
2022/10/17 07:58:35;;;;;;;1276.75;556.83;;;15.40;99.90;;;;;;5131643;27;20282;-49
2022/10/17 08:01:05;;;;;;;1163.40;509.05;;;15.40;99.90;;;;;;5114409;27;20674;-51
2022/10/17 08:03:37;;;;;;;948.75;424.98;;;15.60;99.90;;;;;;5121584;27;20301;-50
2022/10/17 08:06:06;;;;;;;1085.97;417.43;;;15.60;99.90;;;;;;5129745;27;20685;-51
2022/10/17 08:08:34;;;;;;;1655.65;617.72;;;15.70;99.90;;;;;;5128331;27;20963;-50
2022/10/17 08:11:03;;;;;;;1660.75;578.15;;;15.80;99.90;;;;;;5127193;27;20207;-51
2022/10/17 08:13:33;;;;;;;1200.03;461.13;;;15.90;99.90;;;;;;5127563;27;20273;-50
2022/10/17 08:16:03;;;;;;;1321.80;528.92;;;16.00;99.90;;;;;;5124775;27;20316;-50
2022/10/17 08:18:31;;;;;;;1540.68;590.58;;;16.00;99.90;;;;;;5127089;27;20646;-50
2022/10/17 08:21:00;;;;;;;1322.38;424.75;;;16.10;99.90;;;;;;5148445;27;20203;-50
2022/10/17 08:23:28;;;;;;;1390.35;540.80;;;16.10;99.90;;;;;;5146645;27;20216;-50
2022/10/17 08:25:59;;;;;;;1633.40;574.72;;;16.20;99.90;;;;;;5122260;27;20301;-50
2022/10/17 08:28:27;;;;;;;1486.25;631.13;;;16.40;99.90;;;;;;5138583;27;20859;-50
2022/10/17 08:31:04;;;;;;;1328.30;519.58;;;16.40;99.90;;;;;;5133294;27;20207;-50
2022/10/17 08:33:32;;;;;;;1411.95;709.92;;;16.60;99.90;;;;;;5129601;27;20561;-50
2022/10/17 08:36:00;;;;;;;1114.72;541.70;;;16.60;99.90;;;;;;5135162;27;20662;-51
2022/10/17 08:38:29;;;;;;;1080.95;536.85;;;16.60;99.90;;;;;;5136444;27;20196;-50
2022/10/17 08:41:04;;;;;;;1421.50;635.65;;;16.70;99.90;;;;;;5124897;27;20198;-49
2022/10/17 08:43:43;;;;;;;1293.22;575.75;;;16.70;99.90;;;;;;5128300;27;20305;-50
2022/10/17 08:46:13;;;;;;;1492.45;727.95;;;16.80;99.90;;;;;;5129286;27;20234;-51
2022/10/17 08:48:45;;;;;;;1270.80;511.27;;;16.90;99.90;;;;;;5128316;27;20207;-51
2022/10/17 08:51:16;;;;;;;1344.32;622.67;;;17.10;99.90;;;;;;5129009;27;20884;-51
2022/10/17 08:53:50;;;;;;;1201.00;541.47;;;17.10;99.90;;;;;;5127874;27;20227;-50
2022/10/17 08:56:21;;;;;;;1533.38;652.10;;;17.20;99.90;;;;;;5128435;27;20226;-50
2022/10/17 08:59:12;;;;;;;1089.63;443.83;;;17.30;99.90;;;;;;5129426;27;20202;-50
2022/10/17 09:01:50;;;;;;;1441.40;627.28;;;17.30;99.90;;;;;;5130091;27;20294;-51
2022/10/17 09:04:48;;;;;;;1519.38;623.03;;;17.30;99.90;;;;;;5128509;27;20280;-51
2022/10/17 09:07:22;;;;;;;1346.80;623.05;;;17.30;99.90;;;;;;5130591;27;20714;-49
2022/10/17 09:09:59;;;;;;;1367.38;641.08;;;17.40;99.90;;;;;;5129064;27;20295;-49
2022/10/17 09:12:35;;;;;;;1251.22;563.80;;;17.40;99.90;;;;;;5122532;27;20206;-51
2022/10/17 09:15:23;;;;;;;1304.90;619.30;;;17.50;99.90;;;;;;5128799;27;20325;-49
2022/10/17 09:17:58;;;;;;;1426.40;640.13;;;17.60;99.90;;;;;;5129999;27;20234;-51
2022/10/17 09:20:28;;;;;;;1159.03;497.27;;;17.60;99.90;;;;;;5126867;27;20684;-50
2022/10/17 09:22:59;;;;;;;1384.32;712.00;;;17.70;99.90;;;;;;5136018;27;20203;-51
2022/10/17 09:25:28;;;;;;;1298.80;559.15;;;17.70;99.90;;;;;;5128086;27;20310;-51
2022/10/17 09:28:04;;;;;;;1250.85;560.15;;;17.80;99.90;;;;;;5136536;27;20317;-51
2022/10/17 09:30:41;;;;;;;1314.97;678.55;;;17.80;99.90;;;;;;5128064;27;20237;-51
2022/10/17 09:33:16;;;;;;;1125.85;542.35;;;17.90;99.90;;;;;;5118876;27;20583;-51
2022/10/17 09:36:09;;;;;;;1187.25;660.95;;;18.00;99.90;;;;;;5129759;27;20819;-51
2022/10/17 09:38:41;;;;;;;1354.20;695.17;;;18.10;99.90;;;;;;5135671;27;20609;-51
2022/10/17 09:41:17;;;;;;;1382.20;688.25;;;18.20;99.90;;;;;;5128308;27;20207;-50
2022/10/17 09:44:17;;;;;;;1244.07;585.92;;;18.20;99.90;;;;;;5123830;27;20258;-50
2022/10/17 09:47:09;;;;;;;1227.57;613.53;;;18.30;99.90;;;;;;5135101;27;20302;-51
2022/10/17 09:49:40;;;;;;;1260.38;651.33;;;18.40;99.90;;;;;;5129159;27;20633;-50
2022/10/17 09:52:13;;;;;;;1446.63;636.45;;;18.40;99.90;;;;;;5131489;27;20230;-51
2022/10/17 09:54:44;;;;;;;1120.88;530.17;;;18.40;99.90;;;;;;5129237;27;20672;-50
2022/10/17 09:57:14;;;;;;;1528.88;740.40;;;18.50;99.90;;;;;;5130912;27;20300;-51
2022/10/17 09:59:45;;;;;;;1615.03;704.35;;;18.50;99.90;;;;;;5146656;27;21069;-50
2022/10/17 10:02:20;;;;;;;1408.00;678.53;;;18.60;99.90;;;;;;5131575;27;20298;-52
2022/10/17 10:04:56;;;;;;;1298.32;676.13;;;18.70;99.90;;;;;;5131367;27;20222;-51
2022/10/17 10:07:36;;;;;;;1283.22;585.78;;;18.70;99.90;;;;;;5136766;27;20286;-51
2022/10/17 10:10:06;;;;;;;1497.63;695.22;;;18.80;99.90;;;;;;5128481;28;20206;-51
2022/10/17 10:12:37;;;;;;;1297.50;609.10;;;18.80;99.90;;;;;;5130356;27;20213;-51
2022/10/17 10:15:32;;;;;;;1475.13;640.78;;;18.90;99.90;;;;;;5127744;27;20272;-50
2022/10/17 10:18:00;;;;;;;1572.60;642.92;;;19.00;99.90;;;;;;5130557;27;20301;-51
2022/10/17 10:20:32;;;;;;;1744.78;688.80;;;19.10;99.90;;;;;;5128255;27;20785;-51
2022/10/17 10:23:13;;;;;;;1999.90;798.50;;;19.20;99.90;;;;;;5119828;27;20202;-51
2022/10/17 10:25:54;;;;;;;1999.90;872.78;;;19.30;99.90;;;;;;5124604;27;20223;-50
2022/10/17 10:28:26;;;;;;;1469.50;762.65;;;19.40;99.90;;;;;;5125238;27;20229;-48
2022/10/17 10:30:56;;;;;;;1501.47;689.28;;;19.40;99.90;;;;;;5133112;27;20644;-50
2022/10/17 10:33:28;;;;;;;1370.70;721.55;;;19.40;99.90;;;;;;5135107;27;20214;-49
2022/10/17 10:36:00;;;;;;;1951.30;761.97;;;19.50;99.90;;;;;;5134547;27;20729;-50
2022/10/17 10:38:30;;;;;;;1395.35;713.25;;;19.60;99.90;;;;;;5138086;27;20238;-51
2022/10/17 10:41:03;;;;;;;1534.88;695.65;;;19.70;99.90;;;;;;5146197;27;20290;-51
2022/10/17 10:43:35;;;;;;;1771.20;794.90;;;19.80;99.90;;;;;;5142771;27;20205;-50
2022/10/17 10:46:06;;;;;;;1768.72;771.95;;;19.90;99.90;;;;;;5131104;27;20232;-51
2022/10/17 10:48:35;;;;;;;1708.93;839.47;;;20.00;99.90;;;;;;5138657;27;20721;-50
2022/10/17 10:51:11;;;;;;;1275.97;644.40;;;20.00;99.90;;;;;;5137491;27;20230;-50
2022/10/17 10:53:47;;;;;;;1873.97;759.65;;;20.00;99.90;;;;;;5141049;27;20702;-51
2022/10/17 10:56:19;;;;;;;1433.72;754.42;;;20.10;99.90;;;;;;5136055;27;20221;-50
2022/10/17 10:58:53;;;;;;;1414.05;735.20;;;20.10;99.90;;;;;;5135420;27;20289;-49
2022/10/17 11:01:30;;;;;;;1407.57;685.03;;;20.10;99.90;;;;;;5141596;27;20294;-51
2022/10/17 11:04:07;;;;;;;1294.60;635.88;;;20.20;99.90;;;;;;5131105;27;20204;-51
2022/10/17 11:06:41;;;;;;;1378.47;610.72;;;20.20;99.90;;;;;;5125477;27;20683;-50
2022/10/17 11:09:26;;;;;;;1339.97;678.38;;;20.40;99.90;;;;;;5127070;27;20290;-51
2022/10/17 11:12:06;;;;;;;1472.95;722.03;;;20.30;99.90;;;;;;5137004;27;20203;-50
2022/10/17 11:14:43;;;;;;;1999.90;874.28;;;20.40;99.90;;;;;;5137650;27;20222;-51
2022/10/17 11:17:20;;;;;;;1723.57;802.58;;;20.50;99.90;;;;;;5130320;27;20293;-51
2022/10/17 11:19:56;;;;;;;1314.55;758.53;;;20.60;99.90;;;;;;5123928;27;20230;-50
2022/10/17 11:22:29;;;;;;;1547.80;778.58;;;20.60;99.90;;;;;;5129804;27;20194;-51
2022/10/17 11:25:00;;;;;;;1367.35;757.28;;;20.60;99.90;;;;;;5121767;27;20212;-51
2022/10/17 11:27:30;;;;;;;1465.40;747.70;;;20.60;99.90;;;;;;5129767;27;20294;-50
2022/10/17 11:29:58;;;;;;;1759.43;859.13;;;20.70;99.90;;;;;;5139524;27;20627;-51
2022/10/17 11:32:31;;;;;;;1353.80;710.13;;;20.70;99.90;;;;;;5132432;27;20230;-50
2022/10/17 11:35:05;;;;;;;1999.90;871.75;;;20.70;99.90;;;;;;5140499;27;20202;-50
2022/10/17 11:37:37;;;;;;;1434.63;740.33;;;20.70;99.90;;;;;;5133066;27;20219;-51
2022/10/17 11:40:16;;;;;;;1319.85;722.28;;;20.70;99.90;;;;;;5131755;27;20247;-51
2022/10/17 11:42:54;;;;;;;1367.15;702.90;;;20.70;99.90;;;;;;5130305;27;20227;-51
2022/10/17 11:45:26;;;;;;;1351.65;777.03;;;20.60;99.90;;;;;;5124152;27;20328;-51
2022/10/17 11:47:58;;;;;;;1684.00;847.38;;;20.70;99.90;;;;;;5129735;27;20298;-52
2022/10/17 11:50:30;;;;;;;1686.07;857.78;;;20.70;99.90;;;;;;5140260;27;20208;-51
2022/10/17 11:53:21;;;;;;;1311.03;741.83;;;20.70;99.90;;;;;;5129433;27;20215;-51
2022/10/17 11:55:52;;;;;;;1516.25;768.97;;;20.70;99.90;;;;;;5133758;27;20253;-51
2022/10/17 11:58:32;;;;;;;1265.18;611.45;;;20.80;99.90;;;;;;5123592;27;20319;-51
2022/10/17 12:01:12;;;;;;;1596.20;864.75;;;20.80;99.90;;;;;;5139348;27;20285;-51
2022/10/17 12:03:51;;;;;;;1830.72;824.88;;;20.80;99.90;;;;;;5119447;27;20643;-51
2022/10/17 12:06:32;;;;;;;1999.90;902.50;;;20.80;99.90;;;;;;5129902;27;20230;-51
2022/10/17 12:09:11;;;;;;;1367.38;721.55;;;20.80;99.90;;;;;;5130610;27;20217;-52
2022/10/17 12:11:52;;;;;;;1910.95;814.33;;;20.80;99.90;;;;;;5139305;27;20699;-52
2022/10/17 12:14:41;;;;;;;1487.15;786.00;;;20.80;99.90;;;;;;5120815;27;20206;-49
2022/10/17 12:17:27;;;;;;;1479.72;801.28;;;20.80;99.90;;;;;;5136479;27;20301;-52
2022/10/17 12:20:26;;;;;;;1736.25;795.58;;;20.90;99.90;;;;;;5129850;27;20892;-52
2022/10/17 12:22:56;;;;;;;1436.55;841.83;;;20.90;99.90;;;;;;5119157;27;20199;-52
2022/10/17 12:25:29;;;;;;;1452.10;768.00;;;21.00;99.90;;;;;;5113841;27;21005;-52
2022/10/17 12:28:13;;;;;;;1739.55;782.53;;;21.10;99.90;;;;;;5133057;27;20318;-52
2022/10/17 12:30:56;;;;;;;1999.90;851.80;;;21.10;99.90;;;;;;5126764;27;20203;-52